Airport ID:KS21
Update Time (UTC):03/03/2021 18:27
Wind Speed (Knots):6
Wind Direction (Magnetic):150
Temperature (°C):5
Dew Point (°C):-4
Humidity (%):53
Altimeter (inHg):29.85
Density Altitude (Feet):
Visibility:10+
Clouds (Hundreds of feet):CLR
Present Weather:
METAR:METAR KS21 031825Z AUTO 19006KT 10SM CLR 05/M04 A2985 RMK AO2

The data displayed is for advisory purposes only and is not to be used for flight planning or operations.